sensor_id;sensor_type;location;lat;lon;timestamp;pressure;altitude;pressure_sealevel;temperature;humidity
16355;BME280;8287;51.644;8.494;2023-10-31T00:02:14;98250.66;;;16.64;94.50
16355;BME280;8287;51.644;8.494;2023-10-31T00:04:41;98249.94;;;16.53;94.63
16355;BME280;8287;51.644;8.494;2023-10-31T00:07:07;98248.00;;;16.61;94.69
16355;BME280;8287;51.644;8.494;2023-10-31T00:09:34;98244.16;;;16.65;94.31
16355;BME280;8287;51.644;8.494;2023-10-31T00:12:00;98234.97;;;16.66;94.09
16355;BME280;8287;51.644;8.494;2023-10-31T00:14:28;98236.53;;;16.60;94.54
16355;BME280;8287;51.644;8.494;2023-10-31T00:16:55;98231.19;;;16.60;94.90
16355;BME280;8287;51.644;8.494;2023-10-31T00:19:22;98235.81;;;16.56;95.20
16355;BME280;8287;51.644;8.494;2023-10-31T00:21:48;98247.25;;;16.57;95.85
16355;BME280;8287;51.644;8.494;2023-10-31T00:24:15;98238.50;;;16.53;96.62
16355;BME280;8287;51.644;8.494;2023-10-31T00:26:41;98238.16;;;16.47;96.75
16355;BME280;8287;51.644;8.494;2023-10-31T00:29:08;98238.94;;;16.44;97.53
16355;BME280;8287;51.644;8.494;2023-10-31T00:31:36;98244.31;;;16.37;98.31
16355;BME280;8287;51.644;8.494;2023-10-31T00:34:06;98247.00;;;16.30;99.04
16355;BME280;8287;51.644;8.494;2023-10-31T00:36:33;98246.25;;;16.30;99.11
16355;BME280;8287;51.644;8.494;2023-10-31T00:38:59;98252.81;;;16.18;99.90
16355;BME280;8287;51.644;8.494;2023-10-31T00:41:26;98250.16;;;16.18;100.00
16355;BME280;8287;51.644;8.494;2023-10-31T00:43:53;98251.97;;;16.32;99.66
16355;BME280;8287;51.644;8.494;2023-10-31T00:46:19;98249.31;;;16.28;99.81
16355;BME280;8287;51.644;8.494;2023-10-31T00:48:47;98248.94;;;16.30;99.69
16355;BME280;8287;51.644;8.494;2023-10-31T00:51:14;98246.66;;;16.25;99.29
16355;BME280;8287;51.644;8.494;2023-10-31T00:53:40;98247.44;;;16.25;99.85
16355;BME280;8287;51.644;8.494;2023-10-31T00:56:07;98252.84;;;16.15;100.00
16355;BME280;8287;51.644;8.494;2023-10-31T00:58:34;98251.34;;;16.10;100.00
16355;BME280;8287;51.644;8.494;2023-10-31T01:01:00;98252.47;;;16.16;100.00
16355;BME280;8287;51.644;8.494;2023-10-31T01:03:27;98253.91;;;16.31;98.79
16355;BME280;8287;51.644;8.494;2023-10-31T01:05:55;98255.06;;;16.27;98.37
16355;BME280;8287;51.644;8.494;2023-10-31T01:08:21;98256.97;;;16.26;98.05
16355;BME280;8287;51.644;8.494;2023-10-31T01:10:48;98246.34;;;16.16;97.54
16355;BME280;8287;51.644;8.494;2023-10-31T01:13:15;98272.31;;;16.15;96.66
16355;BME280;8287;51.644;8.494;2023-10-31T01:15:42;98271.88;;;16.20;96.29
16355;BME280;8287;51.644;8.494;2023-10-31T01:18:08;98284.53;;;16.16;95.01
16355;BME280;8287;51.644;8.494;2023-10-31T01:20:35;98278.84;;;16.07;94.13
16355;BME280;8287;51.644;8.494;2023-10-31T01:23:03;98292.63;;;15.95;90.62
16355;BME280;8287;51.644;8.494;2023-10-31T01:25:30;98298.81;;;15.75;90.49
16355;BME280;8287;51.644;8.494;2023-10-31T01:27:56;98323.25;;;15.70;90.76
16355;BME280;8287;51.644;8.494;2023-10-31T01:30:23;98306.50;;;15.55;90.24
16355;BME280;8287;51.644;8.494;2023-10-31T01:32:49;98324.06;;;15.49;90.48
16355;BME280;8287;51.644;8.494;2023-10-31T01:35:16;98324.44;;;15.37;89.79
16355;BME280;8287;51.644;8.494;2023-10-31T01:37:43;98329.81;;;15.34;90.21
16355;BME280;8287;51.644;8.494;2023-10-31T01:40:13;98325.97;;;15.24;90.38
16355;BME280;8287;51.644;8.494;2023-10-31T01:42:40;98340.81;;;15.18;90.59
16355;BME280;8287;51.644;8.494;2023-10-31T01:45:08;98344.63;;;15.17;89.72
16355;BME280;8287;51.644;8.494;2023-10-31T01:47:34;98336.25;;;15.01;89.39
16355;BME280;8287;51.644;8.494;2023-10-31T01:50:00;98351.50;;;14.90;89.65
16355;BME280;8287;51.644;8.494;2023-10-31T01:52:27;98334.72;;;14.86;89.70
16355;BME280;8287;51.644;8.494;2023-10-31T01:54:58;98350.31;;;14.77;88.53
16355;BME280;8287;51.644;8.494;2023-10-31T01:57:26;98350.66;;;14.55;88.10
16355;BME280;8287;51.644;8.494;2023-10-31T01:59:53;98352.16;;;14.52;88.44
16355;BME280;8287;51.644;8.494;2023-10-31T02:02:21;98351.41;;;14.45;89.47
16355;BME280;8287;51.644;8.494;2023-10-31T02:04:49;98351.75;;;14.40;90.38
16355;BME280;8287;51.644;8.494;2023-10-31T02:07:16;98346.06;;;14.41;89.62
16355;BME280;8287;51.644;8.494;2023-10-31T02:09:42;98344.88;;;14.35;89.97
16355;BME280;8287;51.644;8.494;2023-10-31T02:12:09;98355.59;;;14.46;90.35
16355;BME280;8287;51.644;8.494;2023-10-31T02:14:37;98352.91;;;14.39;91.40
16355;BME280;8287;51.644;8.494;2023-10-31T02:17:03;98349.09;;;14.43;91.26
16355;BME280;8287;51.644;8.494;2023-10-31T02:19:30;98343.78;;;14.43;90.78
16355;BME280;8287;51.644;8.494;2023-10-31T02:21:58;98355.22;;;14.44;91.22
16355;BME280;8287;51.644;8.494;2023-10-31T02:24:25;98351.03;;;14.46;90.27
16355;BME280;8287;51.644;8.494;2023-10-31T02:26:51;98355.22;;;14.44;89.87
16355;BME280;8287;51.644;8.494;2023-10-31T02:29:18;98349.88;;;14.40;89.68
16355;BME280;8287;51.644;8.494;2023-10-31T02:31:44;98351.38;;;14.34;89.02
16355;BME280;8287;51.644;8.494;2023-10-31T02:34:11;98350.94;;;14.25;88.85
16355;BME280;8287;51.644;8.494;2023-10-31T02:36:38;98369.59;;;14.22;89.10
16355;BME280;8287;51.644;8.494;2023-10-31T02:39:06;98374.16;;;14.21;89.53
16355;BME280;8287;51.644;8.494;2023-10-31T02:41:32;98372.16;;;14.11;88.67
16355;BME280;8287;51.644;8.494;2023-10-31T02:43:59;98384.75;;;14.14;87.69
16355;BME280;8287;51.644;8.494;2023-10-31T02:46:26;98377.50;;;14.11;86.62
16355;BME280;8287;51.644;8.494;2023-10-31T02:48:52;98390.09;;;14.14;86.80
16355;BME280;8287;51.644;8.494;2023-10-31T02:51:19;98401.84;;;14.06;86.38
16355;BME280;8287;51.644;8.494;2023-10-31T02:53:45;98407.81;;;13.89;87.32
16355;BME280;8287;51.644;8.494;2023-10-31T02:56:13;98402.41;;;13.75;88.13
16355;BME280;8287;51.644;8.494;2023-10-31T02:58:40;98398.22;;;13.74;88.07
16355;BME280;8287;51.644;8.494;2023-10-31T03:01:06;98406.97;;;13.71;88.58
16355;BME280;8287;51.644;8.494;2023-10-31T03:03:33;98407.75;;;13.79;88.69
16355;BME280;8287;51.644;8.494;2023-10-31T03:05:59;98410.44;;;13.82;88.99
16355;BME280;8287;51.644;8.494;2023-10-31T03:08:26;98421.13;;;13.86;88.98
16355;BME280;8287;51.644;8.494;2023-10-31T03:10:53;98411.59;;;13.85;89.13
16355;BME280;8287;51.644;8.494;2023-10-31T03:13:23;98401.31;;;13.83;89.38
16355;BME280;8287;51.644;8.494;2023-10-31T03:15:49;98420.28;;;13.78;89.52
16355;BME280;8287;51.644;8.494;2023-10-31T03:18:16;98419.53;;;13.78;90.05
16355;BME280;8287;51.644;8.494;2023-10-31T03:20:43;98414.94;;;13.71;89.89
16355;BME280;8287;51.644;8.494;2023-10-31T03:23:10;98414.59;;;13.76;89.73
16355;BME280;8287;51.644;8.494;2023-10-31T03:25:37;98423.34;;;13.77;89.54
16355;BME280;8287;51.644;8.494;2023-10-31T03:28:04;98420.22;;;13.64;89.81
16355;BME280;8287;51.644;8.494;2023-10-31T03:30:32;98412.59;;;13.63;90.25
16355;BME280;8287;51.644;8.494;2023-10-31T03:32:59;98409.53;;;13.61;89.99
16355;BME280;8287;51.644;8.494;2023-10-31T03:35:25;98405.28;;;13.49;90.51
16355;BME280;8287;51.644;8.494;2023-10-31T03:37:52;98411.72;;;13.48;90.60
16355;BME280;8287;51.644;8.494;2023-10-31T03:40:18;98414.78;;;13.50;90.64
16355;BME280;8287;51.644;8.494;2023-10-31T03:42:45;98418.25;;;13.54;90.62
16355;BME280;8287;51.644;8.494;2023-10-31T03:45:12;98431.88;;;13.49;90.70
16355;BME280;8287;51.644;8.494;2023-10-31T03:47:40;98426.19;;;13.51;90.72
16355;BME280;8287;51.644;8.494;2023-10-31T03:50:08;98440.59;;;13.46;90.43
16355;BME280;8287;51.644;8.494;2023-10-31T03:52:34;98421.19;;;13.42;90.97
16355;BME280;8287;51.644;8.494;2023-10-31T03:55:01;98429.19;;;13.46;90.80
16355;BME280;8287;51.644;8.494;2023-10-31T03:57:28;98439.84;;;13.46;90.69
16355;BME280;8287;51.644;8.494;2023-10-31T03:59:54;98439.09;;;13.45;91.00
16355;BME280;8287;51.644;8.494;2023-10-31T04:02:21;98454.63;;;13.43;91.40
16355;BME280;8287;51.644;8.494;2023-10-31T04:04:49;98461.88;;;13.43;92.04
16355;BME280;8287;51.644;8.494;2023-10-31T04:07:16;98467.16;;;13.39;92.35
16355;BME280;8287;51.644;8.494;2023-10-31T04:09:43;98461.00;;;13.35;93.08
16355;BME280;8287;51.644;8.494;2023-10-31T04:12:09;98461.00;;;13.35;93.42
16355;BME280;8287;51.644;8.494;2023-10-31T04:14:37;98475.84;;;13.33;94.28
16355;BME280;8287;51.644;8.494;2023-10-31T04:17:04;98474.69;;;13.34;94.96
16355;BME280;8287;51.644;8.494;2023-10-31T04:19:30;98486.88;;;13.35;95.83
16355;BME280;8287;51.644;8.494;2023-10-31T04:21:58;98484.88;;;13.25;97.43
16355;BME280;8287;51.644;8.494;2023-10-31T04:24:25;98493.53;;;13.18;99.16
16355;BME280;8287;51.644;8.494;2023-10-31T04:26:51;98484.38;;;13.13;99.72
16355;BME280;8287;51.644;8.494;2023-10-31T04:29:18;98495.34;;;13.08;100.00
16355;BME280;8287;51.644;8.494;2023-10-31T04:31:45;98497.19;;;13.04;100.00
16355;BME280;8287;51.644;8.494;2023-10-31T04:34:11;98485.00;;;12.99;100.00
16355;BME280;8287;51.644;8.494;2023-10-31T04:36:38;98488.53;;;13.10;100.00
16355;BME280;8287;51.644;8.494;2023-10-31T04:39:06;98490.72;;;13.01;100.00
16355;BME280;8287;51.644;8.494;2023-10-31T04:41:33;98506.28;;;13.03;100.00
16355;BME280;8287;51.644;8.494;2023-10-31T04:43:59;98499.47;;;13.05;100.00
16355;BME280;8287;51.644;8.494;2023-10-31T04:46:26;98505.94;;;13.04;100.00
16355;BME280;8287;51.644;8.494;2023-10-31T04:48:53;98508.66;;;13.11;100.00
16355;BME280;8287;51.644;8.494;2023-10-31T04:51:20;98509.78;;;13.10;100.00
16355;BME280;8287;51.644;8.494;2023-10-31T04:53:46;98508.75;;;13.18;100.00
16355;BME280;8287;51.644;8.494;2023-10-31T04:56:15;98514.09;;;13.22;100.00
16355;BME280;8287;51.644;8.494;2023-10-31T04:58:42;98518.69;;;13.24;100.00
16355;BME280;8287;51.644;8.494;2023-10-31T05:01:09;98526.69;;;13.28;100.00
16355;BME280;8287;51.644;8.494;2023-10-31T05:03:36;98524.81;;;13.28;100.00
16355;BME280;8287;51.644;8.494;2023-10-31T05:06:03;98527.06;;;13.26;100.00
16355;BME280;8287;51.644;8.494;2023-10-31T05:08:30;98531.66;;;13.29;100.00
16355;BME280;8287;51.644;8.494;2023-10-31T05:10:57;98536.25;;;13.32;100.00
16355;BME280;8287;51.644;8.494;2023-10-31T05:13:25;98537.72;;;13.30;100.00
16355;BME280;8287;51.644;8.494;2023-10-31T05:15:52;98544.69;;;13.41;100.00
16355;BME280;8287;51.644;8.494;2023-10-31T05:18:18;98546.22;;;13.42;100.00
16355;BME280;8287;51.644;8.494;2023-10-31T05:20:45;98538.66;;;13.48;99.82
16355;BME280;8287;51.644;8.494;2023-10-31T05:23:11;98548.63;;;13.54;98.77
16355;BME280;8287;51.644;8.494;2023-10-31T05:25:39;98539.09;;;13.53;98.34
16355;BME280;8287;51.644;8.494;2023-10-31T05:28:05;98552.81;;;13.55;98.20
16355;BME280;8287;51.644;8.494;2023-10-31T05:30:33;98548.66;;;13.58;97.52
16355;BME280;8287;51.644;8.494;2023-10-31T05:33:00;98552.47;;;13.60;97.17
16355;BME280;8287;51.644;8.494;2023-10-31T05:35:27;98556.25;;;13.59;96.64
16355;BME280;8287;51.644;8.494;2023-10-31T05:37:53;98553.22;;;13.57;97.45
16355;BME280;8287;51.644;8.494;2023-10-31T05:40:20;98561.25;;;13.64;97.27
16355;BME280;8287;51.644;8.494;2023-10-31T05:42:47;98562.72;;;13.58;97.31
16355;BME280;8287;51.644;8.494;2023-10-31T05:45:14;98558.94;;;13.59;97.41
16355;BME280;8287;51.644;8.494;2023-10-31T05:47:42;98559.75;;;13.63;97.66
16355;BME280;8287;51.644;8.494;2023-10-31T05:50:09;98573.75;;;13.60;98.54
16355;BME280;8287;51.644;8.494;2023-10-31T05:52:35;98584.75;;;13.55;98.62
16355;BME280;8287;51.644;8.494;2023-10-31T05:55:03;98595.72;;;13.50;99.72
16355;BME280;8287;51.644;8.494;2023-10-31T05:57:29;98602.88;;;13.43;100.00
16355;BME280;8287;51.644;8.494;2023-10-31T05:59:56;98599.47;;;13.46;100.00
16355;BME280;8287;51.644;8.494;2023-10-31T06:02:23;98603.22;;;13.41;100.00
16355;BME280;8287;51.644;8.494;2023-10-31T06:04:51;98594.38;;;13.30;100.00
16355;BME280;8287;51.644;8.494;2023-10-31T06:07:17;98599.94;;;13.22;100.00
16355;BME280;8287;51.644;8.494;2023-10-31T06:09:44;98603.78;;;13.24;100.00
16355;BME280;8287;51.644;8.494;2023-10-31T06:12:10;98597.63;;;13.17;100.00
16355;BME280;8287;51.644;8.494;2023-10-31T06:14:37;98602.56;;;13.18;100.00
16355;BME280;8287;51.644;8.494;2023-10-31T06:17:03;98592.19;;;13.07;100.00
16355;BME280;8287;51.644;8.494;2023-10-31T06:19:34;98600.06;;;13.00;100.00
16355;BME280;8287;51.644;8.494;2023-10-31T06:22:02;98610.00;;;13.06;100.00
16355;BME280;8287;51.644;8.494;2023-10-31T06:24:29;98617.16;;;12.99;100.00
16355;BME280;8287;51.644;8.494;2023-10-31T06:26:55;98621.03;;;13.05;100.00
16355;BME280;8287;51.644;8.494;2023-10-31T06:29:22;98619.13;;;13.05;100.00
16355;BME280;8287;51.644;8.494;2023-10-31T06:31:48;98620.31;;;13.08;100.00
16355;BME280;8287;51.644;8.494;2023-10-31T06:34:15;98624.53;;;13.12;100.00
16355;BME280;8287;51.644;8.494;2023-10-31T06:36:41;98611.25;;;13.12;100.00
16355;BME280;8287;51.644;8.494;2023-10-31T06:39:09;98615.47;;;13.17;100.00
16355;BME280;8287;51.644;8.494;2023-10-31T06:41:36;98611.31;;;13.19;100.00
16355;BME280;8287;51.644;8.494;2023-10-31T06:44:03;98612.84;;;13.20;100.00
16355;BME280;8287;51.644;8.494;2023-10-31T06:46:30;98619.31;;;13.19;100.00
16355;BME280;8287;51.644;8.494;2023-10-31T06:48:56;98614.00;;;13.19;100.00
16355;BME280;8287;51.644;8.494;2023-10-31T06:51:23;98619.75;;;13.24;100.00
16355;BME280;8287;51.644;8.494;2023-10-31T06:53:50;98625.81;;;13.22;100.00
16355;BME280;8287;51.644;8.494;2023-10-31T06:56:18;98620.47;;;13.22;100.00
16355;BME280;8287;51.644;8.494;2023-10-31T06:58:45;98632.59;;;13.19;100.00
16355;BME280;8287;51.644;8.494;2023-10-31T07:01:12;98631.03;;;13.15;100.00
16355;BME280;8287;51.644;8.494;2023-10-31T07:03:39;98637.72;;;13.05;100.00
16355;BME280;8287;51.644;8.494;2023-10-31T07:06:06;98645.56;;;12.95;100.00
16355;BME280;8287;51.644;8.494;2023-10-31T07:08:33;98644.47;;;12.96;100.00
16355;BME280;8287;51.644;8.494;2023-10-31T07:10:59;98636.66;;;12.84;100.00
16355;BME280;8287;51.644;8.494;2023-10-31T07:13:27;98646.22;;;12.88;100.00
16355;BME280;8287;51.644;8.494;2023-10-31T07:15:54;98642.84;;;12.91;100.00
16355;BME280;8287;51.644;8.494;2023-10-31T07:18:20;98653.84;;;12.90;100.00
16355;BME280;8287;51.644;8.494;2023-10-31T07:20:47;98660.69;;;12.91;100.00
16355;BME280;8287;51.644;8.494;2023-10-31T07:23:13;98668.75;;;12.94;100.00
16355;BME280;8287;51.644;8.494;2023-10-31T07:25:40;98673.47;;;12.82;100.00
16355;BME280;8287;51.644;8.494;2023-10-31T07:28:07;98663.34;;;12.91;100.00
16355;BME280;8287;51.644;8.494;2023-10-31T07:30:35;98673.94;;;12.87;100.00
16355;BME280;8287;51.644;8.494;2023-10-31T07:33:01;98678.50;;;12.87;100.00
16355;BME280;8287;51.644;8.494;2023-10-31T07:35:28;98687.94;;;12.84;100.00
16355;BME280;8287;51.644;8.494;2023-10-31T07:37:54;98683.69;;;12.80;100.00
16355;BME280;8287;51.644;8.494;2023-10-31T07:40:21;98673.81;;;12.80;100.00
16355;BME280;8287;51.644;8.494;2023-10-31T07:42:48;98676.13;;;12.82;100.00
16355;BME280;8287;51.644;8.494;2023-10-31T07:45:14;98681.38;;;12.78;100.00
16355;BME280;8287;51.644;8.494;2023-10-31T07:47:42;98692.47;;;12.84;100.00
16355;BME280;8287;51.644;8.494;2023-10-31T07:50:09;98688.56;;;12.74;100.00
16355;BME280;8287;51.644;8.494;2023-10-31T07:52:36;98693.50;;;12.76;100.00
16355;BME280;8287;51.644;8.494;2023-10-31T07:55:03;98697.28;;;12.75;100.00
16355;BME280;8287;51.644;8.494;2023-10-31T07:57:29;98711.63;;;12.70;100.00
16355;BME280;8287;51.644;8.494;2023-10-31T07:59:56;98711.59;;;12.67;100.00
16355;BME280;8287;51.644;8.494;2023-10-31T08:02:22;98730.44;;;12.58;100.00
16355;BME280;8287;51.644;8.494;2023-10-31T08:04:50;98728.31;;;12.67;100.00
16355;BME280;8287;51.644;8.494;2023-10-31T08:07:17;98722.22;;;12.67;100.00
16355;BME280;8287;51.644;8.494;2023-10-31T08:09:43;98732.22;;;12.77;100.00
16355;BME280;8287;51.644;8.494;2023-10-31T08:12:10;98736.84;;;12.80;100.00
16355;BME280;8287;51.644;8.494;2023-10-31T08:14:36;98745.22;;;12.82;100.00
16355;BME280;8287;51.644;8.494;2023-10-31T08:17:03;98752.19;;;12.90;100.00
16355;BME280;8287;51.644;8.494;2023-10-31T08:19:30;98759.81;;;12.91;99.39
16355;BME280;8287;51.644;8.494;2023-10-31T08:21:58;98757.84;;;12.88;98.87
16355;BME280;8287;51.644;8.494;2023-10-31T08:24:24;98766.28;;;12.94;98.90
16355;BME280;8287;51.644;8.494;2023-10-31T08:26:51;98763.84;;;13.04;98.97
16355;BME280;8287;51.644;8.494;2023-10-31T08:29:17;98770.00;;;13.12;99.03
16355;BME280;8287;51.644;8.494;2023-10-31T08:31:44;98764.81;;;13.18;98.99
16355;BME280;8287;51.644;8.494;2023-10-31T08:34:10;98773.66;;;13.26;98.76
16355;BME280;8287;51.644;8.494;2023-10-31T08:36:37;98766.50;;;13.30;98.95
16355;BME280;8287;51.644;8.494;2023-10-31T08:39:05;98773.44;;;13.38;98.27
16355;BME280;8287;51.644;8.494;2023-10-31T08:41:33;98778.81;;;13.41;98.45
16355;BME280;8287;51.644;8.494;2023-10-31T08:43:59;98783.84;;;13.46;97.28
16355;BME280;8287;51.644;8.494;2023-10-31T08:46:28;98777.38;;;13.47;97.30
16355;BME280;8287;51.644;8.494;2023-10-31T08:48:55;98782.75;;;13.51;97.31
16355;BME280;8287;51.644;8.494;2023-10-31T08:51:22;98784.72;;;13.57;97.55
16355;BME280;8287;51.644;8.494;2023-10-31T08:53:49;98793.91;;;13.60;96.78
16355;BME280;8287;51.644;8.494;2023-10-31T08:56:17;98789.66;;;13.55;97.31
16355;BME280;8287;51.644;8.494;2023-10-31T08:58:44;98808.38;;;13.62;97.02
16355;BME280;8287;51.644;8.494;2023-10-31T09:01:11;98818.25;;;13.62;96.80
16355;BME280;8287;51.644;8.494;2023-10-31T09:03:37;98815.59;;;13.62;96.63
16355;BME280;8287;51.644;8.494;2023-10-31T09:06:04;98814.00;;;13.57;96.26
16355;BME280;8287;51.644;8.494;2023-10-31T09:08:31;98814.81;;;13.61;95.62
16355;BME280;8287;51.644;8.494;2023-10-31T09:10:59;98815.59;;;13.62;96.13
16355;BME280;8287;51.644;8.494;2023-10-31T09:13:27;98801.28;;;13.73;96.17
16355;BME280;8287;51.644;8.494;2023-10-31T09:15:53;98809.63;;;13.72;95.53
16355;BME280;8287;51.644;8.494;2023-10-31T09:18:20;98811.78;;;13.63;95.24
16355;BME280;8287;51.644;8.494;2023-10-31T09:20:47;98810.72;;;13.67;95.16
16355;BME280;8287;51.644;8.494;2023-10-31T09:23:13;98822.19;;;13.71;94.96
16355;BME280;8287;51.644;8.494;2023-10-31T09:25:40;98832.06;;;13.71;95.15
16355;BME280;8287;51.644;8.494;2023-10-31T09:28:06;98831.97;;;13.64;94.74
16355;BME280;8287;51.644;8.494;2023-10-31T09:30:34;98838.13;;;13.68;95.10
16355;BME280;8287;51.644;8.494;2023-10-31T09:33:01;98845.31;;;13.67;94.05
16355;BME280;8287;51.644;8.494;2023-10-31T09:35:27;98851.88;;;13.73;94.17
16355;BME280;8287;51.644;8.494;2023-10-31T09:37:54;98861.38;;;13.74;93.39
16355;BME280;8287;51.644;8.494;2023-10-31T09:40:21;98857.59;;;13.75;93.80
16355;BME280;8287;51.644;8.494;2023-10-31T09:42:48;98866.63;;;13.67;93.71
16355;BME280;8287;51.644;8.494;2023-10-31T09:45:16;98882.28;;;13.72;93.66
16355;BME280;8287;51.644;8.494;2023-10-31T09:47:44;98885.56;;;13.62;94.11
16355;BME280;8287;51.644;8.494;2023-10-31T09:50:11;98881.41;;;13.65;94.03
16355;BME280;8287;51.644;8.494;2023-10-31T09:52:38;98889.13;;;13.73;94.23
16355;BME280;8287;51.644;8.494;2023-10-31T09:55:05;98898.19;;;13.69;93.72
16355;BME280;8287;51.644;8.494;2023-10-31T09:57:32;98907.00;;;13.73;93.04
16355;BME280;8287;51.644;8.494;2023-10-31T09:59:59;98908.84;;;13.69;93.66
16355;BME280;8287;51.644;8.494;2023-10-31T10:02:26;98912.31;;;13.73;93.72
16355;BME280;8287;51.644;8.494;2023-10-31T10:04:54;98913.16;;;13.77;94.19
16355;BME280;8287;51.644;8.494;2023-10-31T10:07:20;98920.88;;;13.85;93.75
16355;BME280;8287;51.644;8.494;2023-10-31T10:09:47;98924.59;;;13.81;93.44
16355;BME280;8287;51.644;8.494;2023-10-31T10:12:16;98930.44;;;13.90;93.74
16355;BME280;8287;51.644;8.494;2023-10-31T10:14:45;98925.44;;;13.85;93.96
16355;BME280;8287;51.644;8.494;2023-10-31T10:17:16;98933.56;;;13.95;93.29
16355;BME280;8287;51.644;8.494;2023-10-31T10:19:43;98932.13;;;14.01;92.90
16355;BME280;8287;51.644;8.494;2023-10-31T10:22:11;98939.31;;;13.97;92.92
16355;BME280;8287;51.644;8.494;2023-10-31T10:24:40;98944.25;;;13.99;92.85
16355;BME280;8287;51.644;8.494;2023-10-31T10:27:07;98947.72;;;13.99;94.04
16355;BME280;8287;51.644;8.494;2023-10-31T10:29:34;98953.09;;;14.03;93.84
16355;BME280;8287;51.644;8.494;2023-10-31T10:32:01;98950.06;;;14.04;94.02
16355;BME280;8287;51.644;8.494;2023-10-31T10:34:27;98949.59;;;13.99;92.83
16355;BME280;8287;51.644;8.494;2023-10-31T10:36:55;98952.47;;;13.87;93.55
16355;BME280;8287;51.644;8.494;2023-10-31T10:39:24;98951.00;;;13.89;94.02
16355;BME280;8287;51.644;8.494;2023-10-31T10:41:53;98951.59;;;13.79;94.74
16355;BME280;8287;51.644;8.494;2023-10-31T10:44:31;98961.41;;;13.75;95.16
16355;BME280;8287;51.644;8.494;2023-10-31T10:47:01;98960.28;;;13.76;96.05
16355;BME280;8287;51.644;8.494;2023-10-31T10:49:28;98963.69;;;13.73;96.24
16355;BME280;8287;51.644;8.494;2023-10-31T10:52:01;98960.97;;;13.70;96.57
16355;BME280;8287;51.644;8.494;2023-10-31T10:54:36;98976.59;;;13.71;96.31
16355;BME280;8287;51.644;8.494;2023-10-31T10:57:10;98975.47;;;13.72;96.01
16355;BME280;8287;51.644;8.494;2023-10-31T10:59:42;98979.75;;;13.80;96.46
16355;BME280;8287;51.644;8.494;2023-10-31T11:02:09;98979.75;;;13.80;96.52
16355;BME280;8287;51.644;8.494;2023-10-31T11:04:39;98982.44;;;13.80;95.84
16355;BME280;8287;51.644;8.494;2023-10-31T11:07:09;98981.75;;;13.87;95.66
16355;BME280;8287;51.644;8.494;2023-10-31T11:09:37;98981.75;;;13.87;95.04
16355;BME280;8287;51.644;8.494;2023-10-31T11:12:05;98986.41;;;13.93;95.27
16355;BME280;8287;51.644;8.494;2023-10-31T11:14:32;98984.59;;;13.97;94.86
16355;BME280;8287;51.644;8.494;2023-10-31T11:17:04;98983.88;;;14.00;93.88
16355;BME280;8287;51.644;8.494;2023-10-31T11:19:33;98972.41;;;13.96;93.12
16355;BME280;8287;51.644;8.494;2023-10-31T11:22:02;98974.38;;;14.03;93.71
16355;BME280;8287;51.644;8.494;2023-10-31T11:24:32;98985.84;;;14.07;93.50
16355;BME280;8287;51.644;8.494;2023-10-31T11:27:02;98982.06;;;14.08;93.52
16355;BME280;8287;51.644;8.494;2023-10-31T11:29:30;98981.41;;;14.14;93.98
16355;BME280;8287;51.644;8.494;2023-10-31T11:31:57;98987.88;;;14.13;93.37
16355;BME280;8287;51.644;8.494;2023-10-31T11:34:26;98990.63;;;14.20;92.72
16355;BME280;8287;51.644;8.494;2023-10-31T11:36:53;98987.13;;;14.16;93.18
16355;BME280;8287;51.644;8.494;2023-10-31T11:39:21;98980.75;;;14.21;93.05
16355;BME280;8287;51.644;8.494;2023-10-31T11:41:54;98990.94;;;14.41;93.19
16355;BME280;8287;51.644;8.494;2023-10-31T11:44:25;98994.28;;;14.64;92.30
16355;BME280;8287;51.644;8.494;2023-10-31T11:46:52;98994.91;;;14.84;90.77
16355;BME280;8287;51.644;8.494;2023-10-31T11:49:45;98990.88;;;15.00;89.92
16355;BME280;8287;51.644;8.494;2023-10-31T11:52:14;98991.38;;;15.09;89.11
16355;BME280;8287;51.644;8.494;2023-10-31T11:54:41;98987.66;;;15.21;88.30
16355;BME280;8287;51.644;8.494;2023-10-31T11:57:08;98992.16;;;15.10;87.56
16355;BME280;8287;51.644;8.494;2023-10-31T11:59:37;98994.78;;;15.06;87.39
16355;BME280;8287;51.644;8.494;2023-10-31T12:02:12;98997.59;;;14.87;87.66
16355;BME280;8287;51.644;8.494;2023-10-31T12:04:39;98999.06;;;14.81;88.59
16355;BME280;8287;51.644;8.494;2023-10-31T12:07:06;98991.41;;;14.80;88.96
16355;BME280;8287;51.644;8.494;2023-10-31T12:09:32;98999.06;;;14.81;88.30
16355;BME280;8287;51.644;8.494;2023-10-31T12:11:59;98993.34;;;14.79;88.36
16355;BME280;8287;51.644;8.494;2023-10-31T12:14:26;98990.63;;;14.76;87.93
16355;BME280;8287;51.644;8.494;2023-10-31T12:16:54;98993.63;;;14.74;88.76
16355;BME280;8287;51.644;8.494;2023-10-31T12:19:21;98998.28;;;14.81;88.88
16355;BME280;8287;51.644;8.494;2023-10-31T12:21:47;99003.31;;;14.86;89.00
16355;BME280;8287;51.644;8.494;2023-10-31T12:24:16;99001.34;;;14.79;88.53
16355;BME280;8287;51.644;8.494;2023-10-31T12:26:45;99003.81;;;14.65;89.24
16355;BME280;8287;51.644;8.494;2023-10-31T12:29:14;99009.25;;;14.72;88.97
16355;BME280;8287;51.644;8.494;2023-10-31T12:31:44;99021.75;;;14.68;89.81
16355;BME280;8287;51.644;8.494;2023-10-31T12:34:13;99022.16;;;14.70;90.05
16355;BME280;8287;51.644;8.494;2023-10-31T12:36:41;99019.06;;;14.68;89.29
16355;BME280;8287;51.644;8.494;2023-10-31T12:39:10;99017.94;;;14.69;89.23
16355;BME280;8287;51.644;8.494;2023-10-31T12:41:37;99011.91;;;14.72;89.11
16355;BME280;8287;51.644;8.494;2023-10-31T12:44:05;99023.72;;;14.75;88.95
16355;BME280;8287;51.644;8.494;2023-10-31T12:46:33;99023.72;;;14.71;88.42
16355;BME280;8287;51.644;8.494;2023-10-31T12:49:00;99029.44;;;14.73;88.77
16355;BME280;8287;51.644;8.494;2023-10-31T12:51:28;99031.31;;;14.73;88.56
16355;BME280;8287;51.644;8.494;2023-10-31T12:53:55;99038.97;;;14.74;88.55
16355;BME280;8287;51.644;8.494;2023-10-31T12:56:35;99030.97;;;14.74;88.86
16355;BME280;8287;51.644;8.494;2023-10-31T12:59:03;99042.13;;;14.83;88.66
16355;BME280;8287;51.644;8.494;2023-10-31T13:01:30;99038.69;;;14.83;88.64
16355;BME280;8287;51.644;8.494;2023-10-31T13:03:57;99037.59;;;14.87;88.57
16355;BME280;8287;51.644;8.494;2023-10-31T13:06:24;99040.66;;;14.86;88.49
16355;BME280;8287;51.644;8.494;2023-10-31T13:08:52;99032.25;;;14.87;88.79